Time;durP1;ratioP1;P1;durP2;ratioP2;P2;SDS_P1;SDS_P2;PMS_P1;PMS_P2;Temp;Humidity;BMP_temperature;BMP_pressure;BME280_temperature;BME280_humidity;BME280_pressure;Samples;Min_cycle;Max_cycle;Signal;HPM_P1;HPM_P2
2023/04/09 00:01:22;;;;;;;28.47;16.70;;;5.30;99.90;;;;;;4213025;28;20016;-61
2023/04/09 00:03:24;;;;;;;27.83;16.97;;;5.20;99.90;;;;;;4213762;28;20036;-62
2023/04/09 00:05:25;;;;;;;26.77;16.17;;;5.20;99.90;;;;;;4212922;28;20070;-61
2023/04/09 00:07:26;;;;;;;26.67;15.70;;;5.20;99.90;;;;;;4214212;28;20024;-62
2023/04/09 00:09:28;;;;;;;25.77;15.73;;;5.30;99.90;;;;;;4212944;28;20036;-62
2023/04/09 00:11:29;;;;;;;26.23;14.63;;;5.20;99.90;;;;;;4214372;28;20054;-61
2023/04/09 00:13:30;;;;;;;28.53;16.90;;;5.30;99.90;;;;;;4213007;28;20093;-63
2023/04/09 00:15:31;;;;;;;28.50;16.20;;;5.30;99.90;;;;;;4214113;28;20407;-61
2023/04/09 00:17:32;;;;;;;29.53;16.40;;;5.30;99.90;;;;;;4212966;28;20048;-61
2023/04/09 00:19:33;;;;;;;27.77;16.67;;;5.30;99.90;;;;;;4213364;28;20039;-61
2023/04/09 00:21:35;;;;;;;27.63;16.50;;;5.30;99.90;;;;;;4212540;28;20106;-61
2023/04/09 00:23:36;;;;;;;28.73;15.67;;;5.30;99.90;;;;;;4213349;28;20031;-61
2023/04/09 00:25:37;;;;;;;29.57;16.70;;;5.30;99.90;;;;;;4212120;28;20047;-61
2023/04/09 00:27:38;;;;;;;27.37;15.90;;;5.20;99.90;;;;;;4216112;28;20027;-61
2023/04/09 00:29:39;;;;;;;30.00;16.50;;;5.20;99.90;;;;;;4230610;28;20028;-62
2023/04/09 00:31:40;;;;;;;28.47;16.43;;;5.20;99.90;;;;;;4229156;28;20039;-61
2023/04/09 00:33:42;;;;;;;25.73;15.57;;;5.20;99.90;;;;;;4230664;28;20541;-61
2023/04/09 00:35:43;;;;;;;26.83;16.37;;;5.20;99.90;;;;;;4229326;28;20097;-61
2023/04/09 00:37:44;;;;;;;27.20;14.83;;;5.20;99.90;;;;;;4230131;28;20560;-61
2023/04/09 00:39:46;;;;;;;26.33;14.93;;;5.10;99.90;;;;;;4229467;28;20027;-61
2023/04/09 00:41:47;;;;;;;27.90;16.03;;;5.10;99.90;;;;;;4229947;28;20073;-61
2023/04/09 00:43:48;;;;;;;28.47;16.50;;;5.10;99.90;;;;;;4228893;28;20036;-61
2023/04/09 00:45:50;;;;;;;25.53;16.20;;;5.10;99.90;;;;;;4230558;28;20028;-62
2023/04/09 00:47:52;;;;;;;27.53;15.83;;;5.10;99.90;;;;;;4229278;28;20380;-61
2023/04/09 00:49:54;;;;;;;25.07;15.50;;;5.10;99.90;;;;;;4230005;28;20456;-61
2023/04/09 00:51:55;;;;;;;27.93;15.60;;;5.10;99.90;;;;;;4228354;28;20097;-67
2023/04/09 00:53:56;;;;;;;29.37;16.43;;;5.10;99.90;;;;;;4229804;28;20024;-63
2023/04/09 00:55:57;;;;;;;25.40;15.23;;;5.10;99.90;;;;;;4229683;28;20434;-61
2023/04/09 00:58:00;;;;;;;22.87;14.07;;;5.10;99.90;;;;;;4229481;28;20173;-61
2023/04/09 01:00:01;;;;;;;25.80;14.83;;;5.10;99.90;;;;;;4229916;28;20027;-61
2023/04/09 01:02:02;;;;;;;25.73;15.30;;;5.10;99.90;;;;;;4229109;28;20028;-61
2023/04/09 01:04:03;;;;;;;24.77;14.47;;;5.10;99.90;;;;;;4230102;28;20437;-63
2023/04/09 01:06:09;;;;;;;26.67;15.77;;;5.10;99.90;;;;;;4228579;28;20044;-61
2023/04/09 01:08:31;;;;;;;28.20;15.57;;;5.10;99.90;;;;;;4225989;28;20081;-62
2023/04/09 01:10:45;;;;;;;26.83;15.63;;;5.10;99.90;;;;;;4195319;28;20033;-61
2023/04/09 01:12:55;;;;;;;23.40;14.80;;;5.10;99.90;;;;;;4200774;28;20031;-61
2023/04/09 01:15:02;;;;;;;28.90;15.20;;;5.10;99.90;;;;;;4211726;28;20077;-61
2023/04/09 01:17:17;;;;;;;23.70;14.37;;;5.10;99.90;;;;;;4212854;28;20093;-61
2023/04/09 01:19:26;;;;;;;22.77;13.77;;;5.00;99.90;;;;;;4211758;28;20070;-61
2023/04/09 01:21:32;;;;;;;29.17;15.87;;;5.00;99.90;;;;;;4212932;28;20028;-61
2023/04/09 01:23:52;;;;;;;28.97;15.80;;;5.00;99.90;;;;;;4211933;28;20497;-61
2023/04/09 01:25:56;;;;;;;24.67;14.23;;;5.00;99.90;;;;;;4212820;28;20516;-67
2023/04/09 01:28:17;;;;;;;26.23;14.67;;;4.90;99.90;;;;;;4211684;28;20418;-64
2023/04/09 01:30:20;;;;;;;28.17;13.77;;;4.90;99.90;;;;;;4212447;28;20036;-68
2023/04/09 01:32:23;;;;;;;23.77;13.83;;;4.90;99.90;;;;;;4211184;28;20043;-68
2023/04/09 01:34:27;;;;;;;24.27;14.63;;;4.90;99.90;;;;;;4212560;28;20036;-66
2023/04/09 01:36:31;;;;;;;25.87;13.73;;;4.90;99.90;;;;;;4211398;28;20082;-65
2023/04/09 01:38:35;;;;;;;24.23;13.80;;;4.90;99.90;;;;;;4212453;28;20370;-66
2023/04/09 01:40:36;;;;;;;23.97;13.87;;;4.90;99.90;;;;;;4211124;28;20085;-66
2023/04/09 01:42:38;;;;;;;26.40;14.93;;;4.90;99.90;;;;;;4212490;28;20093;-68
2023/04/09 01:44:41;;;;;;;26.13;14.90;;;4.90;99.90;;;;;;4211533;28;20036;-67
2023/04/09 01:46:45;;;;;;;27.57;15.00;;;4.90;99.90;;;;;;4212120;28;20025;-68
2023/04/09 01:48:46;;;;;;;27.63;14.80;;;4.90;99.90;;;;;;4211285;28;20454;-68
2023/04/09 01:50:49;;;;;;;24.50;14.40;;;4.90;99.90;;;;;;4212417;28;20036;-68
2023/04/09 01:52:50;;;;;;;24.60;13.73;;;4.90;99.90;;;;;;4209538;28;20160;-67
2023/04/09 01:54:52;;;;;;;27.63;14.83;;;4.90;99.90;;;;;;4212383;28;20040;-68
2023/04/09 01:56:56;;;;;;;28.27;15.80;;;4.90;99.90;;;;;;4210012;28;20048;-63
2023/04/09 01:58:57;;;;;;;24.03;13.87;;;4.90;99.90;;;;;;4211876;28;20438;-61
2023/04/09 02:01:07;;;;;;;28.90;15.50;;;4.90;99.90;;;;;;4211492;28;20032;-63
2023/04/09 02:03:19;;;;;;;26.50;15.70;;;4.90;99.90;;;;;;4210848;28;20085;-63
2023/04/09 02:05:25;;;;;;;27.47;14.20;;;4.90;99.90;;;;;;4211245;28;20481;-61
2023/04/09 02:07:38;;;;;;;26.73;15.30;;;4.90;99.90;;;;;;4211029;28;20435;-62
2023/04/09 02:09:43;;;;;;;25.17;13.83;;;4.90;99.90;;;;;;4210881;28;20085;-61
2023/04/09 02:11:46;;;;;;;22.60;14.13;;;5.00;99.90;;;;;;4210948;28;20028;-62
2023/04/09 02:13:50;;;;;;;22.50;13.17;;;5.00;99.90;;;;;;4211642;28;20377;-61
2023/04/09 02:15:51;;;;;;;24.40;13.83;;;5.00;99.90;;;;;;4211167;28;20086;-68
2023/04/09 02:17:52;;;;;;;24.33;14.43;;;4.90;99.90;;;;;;4211467;28;20048;-63
2023/04/09 02:19:54;;;;;;;24.67;14.13;;;5.00;99.90;;;;;;4210892;28;20028;-61
2023/04/09 02:21:55;;;;;;;26.07;14.50;;;5.00;99.90;;;;;;4212210;28;20040;-62
2023/04/09 02:23:56;;;;;;;26.03;14.77;;;4.90;99.90;;;;;;4210876;28;20053;-64
2023/04/09 02:25:58;;;;;;;25.30;14.20;;;4.90;99.90;;;;;;4210646;28;20032;-68
2023/04/09 02:27:59;;;;;;;26.73;14.57;;;5.00;99.90;;;;;;4210740;28;20517;-68
2023/04/09 02:30:00;;;;;;;26.73;13.83;;;4.90;99.90;;;;;;4211775;28;20093;-68
2023/04/09 02:32:01;;;;;;;20.43;12.97;;;4.90;99.90;;;;;;4210716;28;20032;-67
2023/04/09 02:34:02;;;;;;;22.70;13.93;;;4.90;99.90;;;;;;4211805;28;20443;-67
2023/04/09 02:36:04;;;;;;;27.03;13.90;;;4.90;99.90;;;;;;4210661;28;20020;-68
2023/04/09 02:38:07;;;;;;;22.30;13.33;;;4.80;99.90;;;;;;4211643;28;20429;-61
2023/04/09 02:40:08;;;;;;;24.80;14.40;;;4.90;99.90;;;;;;4210876;28;20044;-63
2023/04/09 02:42:09;;;;;;;20.50;12.57;;;4.90;99.90;;;;;;4211331;28;20020;-63
2023/04/09 02:46:21;;;;;;;;;;;4.80;99.90;;;;;;4419108;23;20381;-60
2023/04/09 02:48:22;;;;;;;21.93;12.60;;;4.80;99.90;;;;;;4227649;28;19912;-68
2023/04/09 02:50:24;;;;;;;20.93;12.87;;;4.80;99.90;;;;;;4228696;28;20039;-67
2023/04/09 02:52:25;;;;;;;24.03;13.57;;;4.70;99.90;;;;;;4226549;28;20044;-64
2023/04/09 02:54:26;;;;;;;22.70;13.17;;;4.70;99.90;;;;;;4228520;28;20268;-64
2023/04/09 02:56:27;;;;;;;20.30;11.83;;;4.70;99.90;;;;;;4227495;28;20424;-63
2023/04/09 02:58:28;;;;;;;21.80;13.00;;;4.60;99.90;;;;;;4227101;28;20093;-63
2023/04/09 03:00:29;;;;;;;21.97;12.63;;;4.60;99.90;;;;;;4226826;28;20437;-66
2023/04/09 03:02:30;;;;;;;26.20;14.10;;;4.60;99.90;;;;;;4227880;28;20100;-62
2023/04/09 03:04:32;;;;;;;20.87;12.90;;;4.60;99.90;;;;;;4227251;28;21206;-64
2023/04/09 03:06:33;;;;;;;24.60;13.97;;;4.60;99.90;;;;;;4227340;28;21379;-68
2023/04/09 03:08:34;;;;;;;25.33;14.10;;;4.60;99.90;;;;;;4228331;28;20649;-62
2023/04/09 03:10:35;;;;;;;23.27;13.67;;;4.60;99.90;;;;;;4227243;28;20367;-67
2023/04/09 03:12:36;;;;;;;22.40;13.93;;;4.60;99.90;;;;;;4228470;28;20018;-62
2023/04/09 03:14:37;;;;;;;21.93;12.70;;;4.60;99.90;;;;;;4227570;28;20305;-66
2023/04/09 03:16:38;;;;;;;24.60;13.30;;;4.70;99.90;;;;;;4231908;28;20410;-67
2023/04/09 03:18:39;;;;;;;23.33;13.23;;;4.60;99.90;;;;;;4230917;28;20043;-63
2023/04/09 03:20:41;;;;;;;24.47;14.27;;;4.70;99.90;;;;;;4213187;28;20706;-62
2023/04/09 03:22:43;;;;;;;26.13;14.90;;;4.70;99.90;;;;;;4229803;28;20039;-66
2023/04/09 03:24:44;;;;;;;24.17;14.00;;;4.70;99.90;;;;;;4231857;28;20341;-68
2023/04/09 03:26:45;;;;;;;26.70;15.03;;;4.70;99.90;;;;;;4230688;28;20256;-60
2023/04/09 03:28:46;;;;;;;28.53;15.50;;;4.70;99.90;;;;;;4212657;28;20488;-60
2023/04/09 03:30:47;;;;;;;26.90;14.87;;;4.70;99.90;;;;;;4230685;28;20068;-66
2023/04/09 03:32:49;;;;;;;25.63;14.47;;;4.70;99.90;;;;;;4230911;28;20329;-62
2023/04/09 03:34:50;;;;;;;26.60;15.10;;;4.60;99.90;;;;;;4231187;28;20251;-62
2023/04/09 03:36:51;;;;;;;23.17;14.50;;;4.60;99.90;;;;;;4230185;28;20028;-69
2023/04/09 03:38:52;;;;;;;26.30;14.37;;;4.60;99.90;;;;;;4230645;28;20048;-61
2023/04/09 03:40:55;;;;;;;24.77;15.00;;;4.60;99.90;;;;;;4229904;28;20080;-62
2023/04/09 03:42:56;;;;;;;25.37;14.53;;;4.60;99.90;;;;;;4230757;28;20491;-64
2023/04/09 03:44:57;;;;;;;32.43;15.17;;;4.60;99.90;;;;;;4230017;28;20272;-64
2023/04/09 03:46:58;;;;;;;27.80;14.90;;;4.60;99.90;;;;;;4229965;28;20491;-62
2023/04/09 03:48:59;;;;;;;28.53;15.93;;;4.70;99.90;;;;;;4230205;28;20264;-62
2023/04/09 03:51:01;;;;;;;26.13;15.00;;;4.70;99.90;;;;;;4230589;28;20028;-60
2023/04/09 03:53:02;;;;;;;25.83;15.00;;;4.70;99.90;;;;;;4229969;28;20057;-61
2023/04/09 03:55:03;;;;;;;26.40;15.30;;;4.80;99.90;;;;;;4231274;28;20652;-62
2023/04/09 03:57:05;;;;;;;28.00;15.23;;;4.70;99.90;;;;;;4230057;28;20016;-63
2023/04/09 03:59:06;;;;;;;28.97;14.07;;;4.70;99.90;;;;;;4230846;28;20296;-62
2023/04/09 04:01:07;;;;;;;23.63;14.27;;;4.70;99.90;;;;;;4229957;28;20475;-61
2023/04/09 04:03:10;;;;;;;24.73;13.93;;;4.80;99.90;;;;;;4230596;28;20085;-61
2023/04/09 04:05:11;;;;;;;26.63;14.80;;;4.80;99.90;;;;;;4230543;28;20453;-63
2023/04/09 04:07:12;;;;;;;26.57;14.37;;;4.80;99.90;;;;;;4230162;28;20080;-69
2023/04/09 04:09:13;;;;;;;25.90;15.87;;;4.80;99.90;;;;;;4230168;28;20040;-61
2023/04/09 04:11:14;;;;;;;25.63;14.97;;;4.80;99.90;;;;;;4229964;28;20031;-62
2023/04/09 04:13:15;;;;;;;27.13;15.03;;;4.80;99.90;;;;;;4230959;28;20472;-65
2023/04/09 04:15:18;;;;;;;25.03;13.87;;;4.80;99.90;;;;;;4229976;28;20032;-62
2023/04/09 04:17:20;;;;;;;28.80;14.83;;;4.80;99.90;;;;;;4230646;28;20048;-62
2023/04/09 04:19:21;;;;;;;24.73;14.23;;;4.80;99.90;;;;;;4229634;28;20089;-62
2023/04/09 04:21:22;;;;;;;23.00;13.00;;;4.80;99.90;;;;;;4230987;28;20080;-64
2023/04/09 04:23:23;;;;;;;22.23;14.00;;;4.80;99.90;;;;;;4229696;28;20035;-63
2023/04/09 04:25:24;;;;;;;21.93;12.87;;;4.80;99.90;;;;;;4230955;28;20539;-62
2023/04/09 04:27:25;;;;;;;22.53;12.70;;;4.80;99.90;;;;;;4228515;28;20421;-62
2023/04/09 04:29:27;;;;;;;24.67;14.17;;;4.90;99.90;;;;;;4229787;28;20040;-62
2023/04/09 04:31:28;;;;;;;22.20;12.67;;;4.90;99.90;;;;;;4229562;28;20477;-63
2023/04/09 04:33:29;;;;;;;23.63;13.07;;;4.90;99.90;;;;;;4229918;28;20039;-62
2023/04/09 04:35:30;;;;;;;22.17;13.20;;;4.90;99.90;;;;;;4229937;28;20028;-63
2023/04/09 04:37:31;;;;;;;26.70;13.83;;;4.80;99.90;;;;;;4229753;28;20044;-69
2023/04/09 04:39:32;;;;;;;20.93;12.27;;;4.90;99.90;;;;;;4229978;28;20295;-61
2023/04/09 04:41:34;;;;;;;22.97;12.10;;;4.90;99.90;;;;;;4229348;28;20471;-63
2023/04/09 04:43:35;;;;;;;20.47;12.67;;;4.90;99.90;;;;;;4230448;28;20264;-62
2023/04/09 04:45:36;;;;;;;18.67;11.70;;;4.90;99.90;;;;;;4228391;28;20047;-63
2023/04/09 04:47:37;;;;;;;22.20;12.00;;;4.90;99.90;;;;;;4230240;28;20444;-64
2023/04/09 04:49:38;;;;;;;21.03;12.37;;;4.90;99.90;;;;;;4229221;28;20482;-63
2023/04/09 04:51:39;;;;;;;22.20;11.80;;;4.90;99.90;;;;;;4230513;28;20031;-63
2023/04/09 04:53:40;;;;;;;20.70;12.33;;;4.90;99.90;;;;;;4229098;28;20107;-63
2023/04/09 04:55:41;;;;;;;21.67;13.03;;;5.00;99.90;;;;;;4230236;28;20085;-62
2023/04/09 04:57:43;;;;;;;19.83;12.07;;;5.00;99.90;;;;;;4229076;28;20368;-62
2023/04/09 04:59:44;;;;;;;25.53;13.43;;;5.00;99.90;;;;;;4229125;28;20040;-64
2023/04/09 05:01:45;;;;;;;23.70;13.27;;;5.00;99.90;;;;;;4227837;28;20031;-65
2023/04/09 05:03:46;;;;;;;24.27;14.93;;;5.00;99.90;;;;;;4229557;28;20540;-63
2023/04/09 05:05:47;;;;;;;22.00;12.60;;;4.90;99.90;;;;;;4229224;28;20064;-63
2023/04/09 05:07:49;;;;;;;19.90;12.80;;;4.90;99.90;;;;;;4228885;28;20041;-63
2023/04/09 05:09:50;;;;;;;24.27;13.83;;;4.90;99.90;;;;;;4229841;28;20547;-63
2023/04/09 05:11:51;;;;;;;21.27;13.47;;;4.90;99.90;;;;;;4228699;28;20040;-62
2023/04/09 05:13:52;;;;;;;24.03;13.83;;;5.00;99.90;;;;;;4229103;28;20096;-63
2023/04/09 05:15:54;;;;;;;22.07;13.27;;;5.00;99.90;;;;;;4228598;28;20356;-61
2023/04/09 05:17:55;;;;;;;23.80;14.60;;;5.10;99.90;;;;;;4230339;28;20471;-62
2023/04/09 05:19:58;;;;;;;24.00;13.40;;;5.10;99.90;;;;;;4228509;28;20452;-63
2023/04/09 05:21:59;;;;;;;23.67;13.50;;;5.10;99.90;;;;;;4229885;28;20081;-62
2023/04/09 05:24:00;;;;;;;22.70;13.40;;;5.20;99.90;;;;;;4228584;28;20024;-63
2023/04/09 05:26:01;;;;;;;25.33;13.27;;;5.20;99.90;;;;;;4229593;28;20425;-62
2023/04/09 05:28:03;;;;;;;27.57;13.97;;;5.30;99.90;;;;;;4228642;28;20077;-62
2023/04/09 05:30:04;;;;;;;25.60;13.67;;;5.40;99.90;;;;;;4229489;28;20076;-62
2023/04/09 05:32:08;;;;;;;23.30;13.90;;;5.40;99.90;;;;;;4228329;28;20421;-66
2023/04/09 05:34:09;;;;;;;26.50;13.60;;;5.50;99.90;;;;;;4228823;28;20043;-62
2023/04/09 05:36:17;;;;;;;23.53;13.07;;;5.50;99.90;;;;;;4228770;28;20020;-62
2023/04/09 05:38:18;;;;;;;22.90;13.97;;;5.60;99.90;;;;;;4228617;28;20031;-62
2023/04/09 05:40:19;;;;;;;24.10;13.53;;;5.70;99.90;;;;;;4229028;28;20127;-63
2023/04/09 05:42:21;;;;;;;22.50;13.27;;;5.70;99.90;;;;;;4228468;28;20027;-63
2023/04/09 05:44:22;;;;;;;22.50;12.80;;;5.90;99.90;;;;;;4228736;28;20043;-63
2023/04/09 05:46:23;;;;;;;23.87;13.80;;;5.90;99.90;;;;;;4227986;28;20522;-65
2023/04/09 05:48:24;;;;;;;20.37;12.83;;;5.90;99.90;;;;;;4229686;28;20028;-62
2023/04/09 05:50:25;;;;;;;24.10;13.63;;;6.00;99.90;;;;;;4228250;28;20426;-63
2023/04/09 05:52:27;;;;;;;22.10;12.97;;;6.00;99.90;;;;;;4228803;28;20532;-63
2023/04/09 05:54:28;;;;;;;21.33;13.27;;;6.10;99.90;;;;;;4227980;28;20429;-62
2023/04/09 05:56:29;;;;;;;24.37;14.33;;;6.20;99.90;;;;;;4228879;28;20051;-63
2023/04/09 05:58:30;;;;;;;21.80;13.47;;;6.30;99.90;;;;;;4227909;28;20027;-62
2023/04/09 06:00:32;;;;;;;19.80;13.00;;;6.40;99.90;;;;;;4229112;28;20073;-63
2023/04/09 06:02:33;;;;;;;22.20;13.97;;;6.50;99.90;;;;;;4228005;28;20023;-64
2023/04/09 06:04:34;;;;;;;24.40;14.77;;;6.50;99.90;;;;;;4228480;28;20494;-63
2023/04/09 06:06:37;;;;;;;25.40;14.40;;;6.60;99.90;;;;;;4228230;28;20020;-64
2023/04/09 06:08:38;;;;;;;20.23;12.97;;;6.70;99.90;;;;;;4228426;28;20024;-63
2023/04/09 06:10:39;;;;;;;23.13;13.93;;;6.80;99.90;;;;;;4228471;28;20023;-62
2023/04/09 06:12:40;;;;;;;25.90;14.63;;;6.90;99.90;;;;;;4228066;28;20035;-63
2023/04/09 06:14:41;;;;;;;23.87;14.93;;;7.10;99.90;;;;;;4227971;28;20039;-61
2023/04/09 06:16:42;;;;;;;21.67;12.23;;;7.20;99.90;;;;;;4227472;28;20437;-63
2023/04/09 06:18:45;;;;;;;19.37;13.30;;;7.30;99.90;;;;;;4228792;28;20475;-64
2023/04/09 06:20:47;;;;;;;19.17;12.20;;;7.50;99.90;;;;;;4227197;28;20027;-63
2023/04/09 06:22:48;;;;;;;21.83;12.33;;;7.80;99.90;;;;;;4228859;28;20092;-63
2023/04/09 06:24:49;;;;;;;21.70;12.93;;;8.00;99.90;;;;;;4226720;28;20047;-62
2023/04/09 06:26:50;;;;;;;20.07;12.67;;;8.20;99.90;;;;;;4228204;28;20088;-62
2023/04/09 06:28:51;;;;;;;20.97;12.20;;;8.30;99.90;;;;;;4227407;28;20032;-63
2023/04/09 06:30:54;;;;;;;22.27;13.07;;;8.40;99.90;;;;;;4228177;28;20068;-66
2023/04/09 06:32:55;;;;;;;20.87;12.37;;;8.50;99.90;;;;;;4227157;28;20077;-63
2023/04/09 06:34:56;;;;;;;18.70;13.13;;;8.80;99.90;;;;;;4227904;28;20105;-65
2023/04/09 06:36:57;;;;;;;19.40;12.37;;;8.90;99.90;;;;;;4227713;28;20140;-62
2023/04/09 06:38:58;;;;;;;16.87;11.97;;;9.20;99.90;;;;;;4227887;28;20040;-64
2023/04/09 06:40:59;;;;;;;20.33;12.40;;;9.40;99.90;;;;;;4223532;28;20120;-61
2023/04/09 06:43:01;;;;;;;20.73;11.93;;;9.80;99.90;;;;;;4210628;28;20537;-61
2023/04/09 06:45:07;;;;;;;20.20;11.50;;;10.10;99.90;;;;;;4211148;28;20089;-62
2023/04/09 06:47:08;;;;;;;18.37;11.60;;;10.30;99.90;;;;;;4216873;28;20124;-69
2023/04/09 06:49:09;;;;;;;17.50;11.40;;;10.50;99.90;;;;;;4227878;28;20077;-62
2023/04/09 06:51:11;;;;;;;19.00;11.53;;;10.80;99.90;;;;;;4227077;28;20032;-63
2023/04/09 06:53:13;;;;;;;16.87;11.70;;;10.90;99.90;;;;;;4209380;28;20032;-63
2023/04/09 06:55:15;;;;;;;16.17;10.40;;;11.40;99.90;;;;;;4226845;28;20036;-64
2023/04/09 06:57:16;;;;;;;15.67;10.80;;;11.60;99.90;;;;;;4228573;28;20024;-64
2023/04/09 06:59:17;;;;;;;17.90;10.80;;;11.80;99.90;;;;;;4227023;28;20043;-66
2023/04/09 07:01:19;;;;;;;17.80;12.07;;;11.40;99.90;;;;;;4228179;28;20035;-65
2023/04/09 07:03:20;;;;;;;18.40;11.60;;;11.40;99.90;;;;;;4227051;28;20482;-64
2023/04/09 07:05:21;;;;;;;16.80;11.93;;;11.50;99.90;;;;;;4228243;28;20027;-63
2023/04/09 07:07:22;;;;;;;16.57;12.07;;;11.30;99.90;;;;;;4226280;28;20092;-64
2023/04/09 07:09:24;;;;;;;16.20;11.43;;;11.30;99.90;;;;;;4220220;28;20039;-64
2023/04/09 07:11:25;;;;;;;14.77;10.93;;;10.80;99.90;;;;;;4226215;28;20028;-63
2023/04/09 07:13:26;;;;;;;17.63;11.43;;;10.30;99.90;;;;;;4226325;28;20043;-62
2023/04/09 07:15:27;;;;;;;17.60;12.07;;;9.90;99.90;;;;;;4226562;28;20081;-63
2023/04/09 07:17:29;;;;;;;16.73;11.80;;;9.80;99.90;;;;;;4227165;28;20024;-70
2023/04/09 07:19:32;;;;;;;17.40;12.53;;;9.70;99.90;;;;;;4227107;28;20526;-62
2023/04/09 07:21:33;;;;;;;17.07;11.50;;;9.80;99.90;;;;;;4225997;28;20039;-62
2023/04/09 07:23:37;;;;;;;17.77;12.27;;;10.20;99.90;;;;;;4227154;28;20051;-62
2023/04/09 07:25:38;;;;;;;17.17;10.97;;;10.40;99.90;;;;;;4226631;28;20080;-63
2023/04/09 07:27:39;;;;;;;17.80;12.00;;;10.50;99.90;;;;;;4227930;28;20039;-63
2023/04/09 07:29:43;;;;;;;19.30;12.43;;;10.50;99.90;;;;;;4207711;28;20044;-70
2023/04/09 07:31:45;;;;;;;16.17;11.50;;;10.70;99.90;;;;;;4226965;28;20031;-64
2023/04/09 07:33:46;;;;;;;18.00;12.10;;;10.80;99.90;;;;;;4226639;28;20072;-67
2023/04/09 07:35:47;;;;;;;18.97;12.27;;;10.90;99.90;;;;;;4227701;28;20429;-62
2023/04/09 07:37:48;;;;;;;18.63;12.27;;;11.30;99.90;;;;;;4226593;28;20028;-72
2023/04/09 07:39:52;;;;;;;18.70;11.60;;;11.20;99.90;;;;;;4227126;28;20040;-62
2023/04/09 07:41:55;;;;;;;18.13;12.10;;;11.10;99.90;;;;;;4226651;28;20035;-64
2023/04/09 07:43:56;;;;;;;14.63;10.17;;;11.20;99.90;;;;;;4226906;28;20031;-72
2023/04/09 07:45:57;;;;;;;16.10;11.17;;;11.00;99.90;;;;;;4226563;28;20449;-64
2023/04/09 07:47:58;;;;;;;19.73;10.07;;;11.00;99.90;;;;;;4227361;28;20479;-74
2023/04/09 07:50:00;;;;;;;12.03;9.07;;;10.80;99.90;;;;;;4227206;28;20024;-68
2023/04/09 07:52:01;;;;;;;16.27;11.70;;;10.80;99.90;;;;;;4226593;28;20027;-68
2023/04/09 07:54:02;;;;;;;16.27;10.93;;;10.80;99.90;;;;;;4226716;28;20112;-62
2023/04/09 07:56:04;;;;;;;16.63;11.17;;;11.00;99.90;;;;;;4225931;28;20044;-65
2023/04/09 07:58:05;;;;;;;16.80;11.30;;;11.10;99.90;;;;;;4227600;28;20081;-64
2023/04/09 08:00:06;;;;;;;17.70;11.97;;;11.10;99.90;;;;;;4226417;28;20556;-64
2023/04/09 08:02:07;;;;;;;16.80;11.47;;;10.90;99.90;;;;;;4230266;28;20483;-63
2023/04/09 08:04:09;;;;;;;14.50;10.13;;;10.70;99.90;;;;;;4228403;28;20043;-64
2023/04/09 08:06:11;;;;;;;14.00;9.30;;;10.50;99.90;;;;;;4230775;28;20081;-67
2023/04/09 08:08:12;;;;;;;12.03;9.63;;;10.40;99.90;;;;;;4229607;28;20440;-64
2023/04/09 08:10:15;;;;;;;13.43;9.47;;;10.30;99.90;;;;;;4230826;28;20429;-71
2023/04/09 08:12:17;;;;;;;17.73;11.23;;;10.20;99.90;;;;;;4229542;28;20020;-65
2023/04/09 08:14:18;;;;;;;18.40;12.40;;;10.20;99.90;;;;;;4229607;28;20080;-64
2023/04/09 08:16:20;;;;;;;16.03;10.70;;;10.20;99.90;;;;;;4228730;28;20016;-65
2023/04/09 08:18:21;;;;;;;15.73;11.13;;;10.60;99.90;;;;;;4229536;28;20452;-64
2023/04/09 08:20:22;;;;;;;14.93;10.80;;;10.70;99.90;;;;;;4228168;28;20792;-65
2023/04/09 08:22:23;;;;;;;17.70;11.27;;;10.70;99.90;;;;;;4214869;28;20089;-64
2023/04/09 08:24:24;;;;;;;18.53;11.20;;;10.70;99.90;;;;;;4230314;28;20064;-64
2023/04/09 08:26:26;;;;;;;19.27;12.37;;;10.70;99.90;;;;;;4229214;28;20019;-65
2023/04/09 08:28:27;;;;;;;19.20;12.67;;;10.70;99.90;;;;;;4230349;28;20081;-64
2023/04/09 08:30:28;;;;;;;15.17;11.63;;;10.80;99.90;;;;;;4228264;28;20440;-63
2023/04/09 08:32:29;;;;;;;21.20;13.13;;;11.00;99.90;;;;;;4229137;28;20029;-66
2023/04/09 08:34:30;;;;;;;19.13;12.43;;;11.00;99.90;;;;;;4229164;28;20027;-64
2023/04/09 08:36:33;;;;;;;21.23;13.33;;;10.90;99.90;;;;;;4230230;28;20077;-64
2023/04/09 08:38:34;;;;;;;19.33;13.70;;;11.00;99.90;;;;;;4228592;28;20024;-63
2023/04/09 08:40:36;;;;;;;18.80;13.23;;;11.00;99.90;;;;;;4229882;28;20036;-63
2023/04/09 08:42:46;;;;;;;19.47;13.40;;;11.10;99.90;;;;;;4228935;28;20035;-63
2023/04/09 08:44:47;;;;;;;22.38;13.38;;;11.20;99.90;;;;;;4228526;28;20092;-63
2023/04/09 08:46:49;;;;;;;21.90;13.67;;;11.40;99.90;;;;;;4228464;28;20093;-61
2023/04/09 08:48:51;;;;;;;20.33;13.10;;;11.20;99.90;;;;;;4229734;28;20429;-64
2023/04/09 08:50:52;;;;;;;22.80;15.07;;;11.20;99.90;;;;;;4229400;28;20027;-61
2023/04/09 08:52:54;;;;;;;21.53;14.33;;;11.10;99.90;;;;;;4229348;28;20073;-62
2023/04/09 08:54:55;;;;;;;20.23;14.63;;;11.20;99.90;;;;;;4229624;28;20031;-63
2023/04/09 08:56:57;;;;;;;20.10;14.13;;;11.10;99.90;;;;;;4225650;28;21131;-61
2023/04/09 08:58:58;;;;;;;25.10;14.87;;;11.00;99.90;;;;;;4229083;28;20036;-60
2023/04/09 09:01:00;;;;;;;23.73;15.20;;;10.90;99.90;;;;;;4228584;28;20091;-60
2023/04/09 09:03:06;;;;;;;24.47;16.70;;;10.80;99.90;;;;;;4228820;28;20076;-60
2023/04/09 09:05:08;;;;;;;21.27;15.43;;;10.70;99.90;;;;;;4227457;28;20077;-60
2023/04/09 09:07:09;;;;;;;22.53;15.73;;;10.80;99.90;;;;;;4229502;28;20057;-60
2023/04/09 09:09:15;;;;;;;22.10;15.67;;;11.00;99.90;;;;;;4227653;28;20090;-61
2023/04/09 09:11:26;;;;;;;23.73;15.40;;;10.90;99.90;;;;;;4229743;28;20067;-61
2023/04/09 09:13:27;;;;;;;19.63;14.50;;;10.90;99.90;;;;;;4227941;28;20043;-62
2023/04/09 09:15:29;;;;;;;21.40;14.67;;;11.10;99.90;;;;;;4229239;28;20088;-62
2023/04/09 09:17:30;;;;;;;19.83;14.17;;;11.30;99.90;;;;;;4228402;28;20032;-62
2023/04/09 09:19:32;;;;;;;22.63;14.03;;;11.40;99.90;;;;;;4227935;28;20047;-69
2023/04/09 09:21:35;;;;;;;20.00;13.60;;;11.40;99.90;;;;;;4228766;28;20515;-61
2023/04/09 09:23:37;;;;;;;17.47;13.10;;;11.50;99.90;;;;;;4229144;28;20032;-61
2023/04/09 09:25:41;;;;;;;17.03;11.90;;;11.60;99.90;;;;;;4228526;28;20024;-62
2023/04/09 09:27:42;;;;;;;16.97;12.07;;;11.60;99.90;;;;;;4228890;28;20096;-63
2023/04/09 09:29:44;;;;;;;20.50;13.07;;;11.60;99.90;;;;;;4227677;28;20067;-64
2023/04/09 09:31:50;;;;;;;19.37;13.03;;;11.60;99.90;;;;;;4227444;28;20510;-70
2023/04/09 09:33:51;;;;;;;17.00;12.53;;;11.70;99.90;;;;;;4227918;28;20441;-63
2023/04/09 09:35:53;;;;;;;18.90;13.30;;;11.60;99.90;;;;;;4227253;28;20472;-61
2023/04/09 09:38:05;;;;;;;16.07;11.53;;;11.60;99.90;;;;;;4229001;28;20429;-60
2023/04/09 09:40:07;;;;;;;18.30;12.10;;;11.60;99.90;;;;;;4226857;28;20104;-60
2023/04/09 09:42:08;;;;;;;15.53;10.70;;;11.40;99.90;;;;;;4229050;28;20036;-61
2023/04/09 09:44:11;;;;;;;16.20;11.03;;;11.40;99.90;;;;;;4227852;28;20041;-59
2023/04/09 09:46:12;;;;;;;17.60;12.33;;;11.60;99.90;;;;;;4228897;28;20560;-61
2023/04/09 09:48:14;;;;;;;16.37;11.97;;;11.80;99.90;;;;;;4226888;28;20092;-61
2023/04/09 09:50:15;;;;;;;15.73;10.97;;;11.90;99.90;;;;;;4210832;28;20040;-62
2023/04/09 09:52:23;;;;;;;17.27;11.83;;;11.80;99.90;;;;;;4227516;28;20039;-61
2023/04/09 09:54:27;;;;;;;16.53;11.13;;;11.50;99.90;;;;;;4228776;28;20031;-61
2023/04/09 09:56:36;;;;;;;16.93;11.50;;;11.60;99.90;;;;;;4226566;28;20040;-61
2023/04/09 09:58:44;;;;;;;17.23;10.83;;;11.50;99.90;;;;;;4227633;28;20044;-61
2023/04/09 10:00:47;;;;;;;15.73;10.93;;;11.60;99.90;;;;;;4226546;28;20055;-61
2023/04/09 10:03:20;;;;;;;17.87;12.20;;;11.60;99.90;;;;;;4227997;28;20052;-61
2023/04/09 10:05:25;;;;;;;16.97;11.13;;;11.40;99.90;;;;;;4226309;28;20039;-61
2023/04/09 10:07:27;;;;;;;16.10;11.27;;;11.30;99.90;;;;;;4227400;28;20051;-61
2023/04/09 10:09:30;;;;;;;15.30;11.20;;;11.20;99.90;;;;;;4227548;28;20076;-62
2023/04/09 10:11:34;;;;;;;16.70;11.03;;;11.20;99.90;;;;;;4228866;28;20409;-58
2023/04/09 10:13:42;;;;;;;15.47;10.97;;;11.20;99.90;;;;;;4227271;28;20072;-60
2023/04/09 10:15:44;;;;;;;17.17;11.70;;;11.30;99.90;;;;;;4228341;28;20019;-61
2023/04/09 10:17:45;;;;;;;15.90;10.50;;;11.30;99.90;;;;;;4226897;28;20077;-61
2023/04/09 10:20:04;;;;;;;15.67;10.90;;;11.40;99.90;;;;;;4228175;28;20031;-62
2023/04/09 10:22:10;;;;;;;16.27;10.60;;;11.30;99.90;;;;;;4226297;28;20483;-64
2023/04/09 10:24:12;;;;;;;15.50;10.13;;;11.20;99.90;;;;;;4227589;28;20524;-62
2023/04/09 10:26:13;;;;;;;14.30;10.30;;;11.20;99.90;;;;;;4226274;28;20437;-60
2023/04/09 10:28:18;;;;;;;15.60;10.10;;;11.30;99.90;;;;;;4226772;28;20024;-58